sensor_id;sensor_type;location;lat;lon;timestamp;temperature;humidity
11549;DHT22;61444;59.472;18.306;2023-04-15T16:30:07;8.00;75.90
11549;DHT22;61444;59.472;18.306;2023-04-15T16:32:16;8.00;76.60
11549;DHT22;61444;59.472;18.306;2023-04-15T16:34:25;8.10;78.00
11549;DHT22;61444;59.472;18.306;2023-04-15T16:36:35;7.90;77.10
11549;DHT22;61444;59.472;18.306;2023-04-15T16:38:47;8.00;77.90
11549;DHT22;61444;59.472;18.306;2023-04-15T16:40:58;8.30;79.10
11549;DHT22;61444;59.472;18.306;2023-04-15T16:43:07;8.30;77.90
11549;DHT22;61444;59.472;18.306;2023-04-15T16:45:17;8.50;78.10
11549;DHT22;61444;59.472;18.306;2023-04-15T16:47:26;8.30;77.00
11549;DHT22;61444;59.472;18.306;2023-04-15T16:49:34;9.10;75.80
11549;DHT22;61444;59.472;18.306;2023-04-15T16:51:43;9.50;76.10
11549;DHT22;61444;59.472;18.306;2023-04-15T16:53:54;9.50;74.00
11549;DHT22;61444;59.472;18.306;2023-04-15T16:56:02;9.20;73.40
11549;DHT22;61444;59.472;18.306;2023-04-15T16:58:10;9.80;73.90
11549;DHT22;61444;59.472;18.306;2023-04-15T17:00:19;10.10;72.90
11549;DHT22;61444;59.472;18.306;2023-04-15T17:02:29;10.40;71.10
11549;DHT22;61444;59.472;18.306;2023-04-15T17:04:38;9.90;73.50
11549;DHT22;61444;59.472;18.306;2023-04-15T17:06:47;9.20;73.70
11549;DHT22;61444;59.472;18.306;2023-04-15T17:08:58;9.20;74.20
11549;DHT22;61444;59.472;18.306;2023-04-15T17:11:07;8.80;74.40
11549;DHT22;61444;59.472;18.306;2023-04-15T17:13:15;8.80;75.40
11549;DHT22;61444;59.472;18.306;2023-04-15T17:15:26;8.50;75.90
11549;DHT22;61444;59.472;18.306;2023-04-15T17:17:35;7.70;77.10
11549;DHT22;61444;59.472;18.306;2023-04-15T17:19:43;7.60;78.20
11549;DHT22;61444;59.472;18.306;2023-04-15T17:21:52;7.50;79.10
11549;DHT22;61444;59.472;18.306;2023-04-15T17:24:03;7.40;80.00
11549;DHT22;61444;59.472;18.306;2023-04-15T17:26:13;7.20;79.80
11549;DHT22;61444;59.472;18.306;2023-04-15T17:28:21;7.00;79.50
11549;DHT22;61444;59.472;18.306;2023-04-15T17:30:31;7.00;81.10
11549;DHT22;61444;59.472;18.306;2023-04-15T17:32:40;6.70;80.00
11549;DHT22;61444;59.472;18.306;2023-04-15T17:34:49;6.50;80.90
11549;DHT22;61444;59.472;18.306;2023-04-15T17:36:57;6.30;81.50
11549;DHT22;61444;59.472;18.306;2023-04-15T17:39:07;6.10;81.00
11549;DHT22;61444;59.472;18.306;2023-04-15T17:41:16;6.10;81.80
11549;DHT22;61444;59.472;18.306;2023-04-15T17:43:25;5.90;81.70
11549;DHT22;61444;59.472;18.306;2023-04-15T17:45:34;5.80;82.00
11549;DHT22;61444;59.472;18.306;2023-04-15T17:47:43;5.70;81.90
11549;DHT22;61444;59.472;18.306;2023-04-15T17:49:51;5.70;82.80
11549;DHT22;61444;59.472;18.306;2023-04-15T17:52:00;5.50;82.40
11549;DHT22;61444;59.472;18.306;2023-04-15T17:54:11;5.60;83.70
11549;DHT22;61444;59.472;18.306;2023-04-15T17:56:20;5.40;82.80
11549;DHT22;61444;59.472;18.306;2023-04-15T17:58:29;5.40;83.30
11549;DHT22;61444;59.472;18.306;2023-04-15T18:00:39;5.30;83.20
11549;DHT22;61444;59.472;18.306;2023-04-15T18:02:47;5.20;83.70
11549;DHT22;61444;59.472;18.306;2023-04-15T18:04:56;5.20;83.50
11549;DHT22;61444;59.472;18.306;2023-04-15T18:07:05;5.10;83.50
11549;DHT22;61444;59.472;18.306;2023-04-15T18:09:15;5.00;83.90
11549;DHT22;61444;59.472;18.306;2023-04-15T18:11:24;5.00;83.90
11549;DHT22;61444;59.472;18.306;2023-04-15T18:13:32;4.90;84.30
11549;DHT22;61444;59.472;18.306;2023-04-15T18:15:41;4.80;84.40
11549;DHT22;61444;59.472;18.306;2023-04-15T18:17:53;4.80;85.10
11549;DHT22;61444;59.472;18.306;2023-04-15T18:20:02;4.80;85.30
11549;DHT22;61444;59.472;18.306;2023-04-15T18:22:11;4.70;85.40
11549;DHT22;61444;59.472;18.306;2023-04-15T18:24:21;4.60;85.40
11549;DHT22;61444;59.472;18.306;2023-04-15T18:26:30;4.60;86.30
11549;DHT22;61444;59.472;18.306;2023-04-15T18:28:39;4.60;85.60
11549;DHT22;61444;59.472;18.306;2023-04-15T18:30:48;4.50;86.00
11549;DHT22;61444;59.472;18.306;2023-04-15T18:32:56;4.40;86.10
11549;DHT22;61444;59.472;18.306;2023-04-15T18:35:06;4.40;86.80
11549;DHT22;61444;59.472;18.306;2023-04-15T18:37:15;4.40;86.70
11549;DHT22;61444;59.472;18.306;2023-04-15T18:39:26;4.30;86.60
11549;DHT22;61444;59.472;18.306;2023-04-15T18:41:35;4.30;86.70
11549;DHT22;61444;59.472;18.306;2023-04-15T18:43:44;4.30;86.60
11549;DHT22;61444;59.472;18.306;2023-04-15T18:45:53;4.20;87.40
11549;DHT22;61444;59.472;18.306;2023-04-15T18:48:01;4.10;88.00
11549;DHT22;61444;59.472;18.306;2023-04-15T18:50:10;4.10;87.70
11549;DHT22;61444;59.472;18.306;2023-04-15T18:52:19;4.10;88.10
11549;DHT22;61444;59.472;18.306;2023-04-15T18:54:30;4.00;88.10
11549;DHT22;61444;59.472;18.306;2023-04-15T18:56:39;4.00;88.10
11549;DHT22;61444;59.472;18.306;2023-04-15T18:58:48;4.00;88.30
11549;DHT22;61444;59.472;18.306;2023-04-15T19:01:16;3.90;88.50
11549;DHT22;61444;59.472;18.306;2023-04-15T19:03:25;3.90;88.90
11549;DHT22;61444;59.472;18.306;2023-04-15T19:05:35;3.90;88.60
11549;DHT22;61444;59.472;18.306;2023-04-15T19:07:48;3.90;90.10
11549;DHT22;61444;59.472;18.306;2023-04-15T19:09:59;3.90;88.80
11549;DHT22;61444;59.472;18.306;2023-04-15T19:12:08;3.80;89.40
11549;DHT22;61444;59.472;18.306;2023-04-15T19:14:17;3.80;89.40
11549;DHT22;61444;59.472;18.306;2023-04-15T19:16:26;3.90;89.20
11549;DHT22;61444;59.472;18.306;2023-04-15T19:18:35;3.80;89.40
11549;DHT22;61444;59.472;18.306;2023-04-15T19:20:44;3.80;89.50
11549;DHT22;61444;59.472;18.306;2023-04-15T19:22:53;3.80;89.60
11549;DHT22;61444;59.472;18.306;2023-04-15T19:25:04;3.90;89.10
11549;DHT22;61444;59.472;18.306;2023-04-15T19:27:13;3.80;90.00
11549;DHT22;61444;59.472;18.306;2023-04-15T19:29:23;3.80;89.80
11549;DHT22;61444;59.472;18.306;2023-04-15T19:31:31;3.70;90.00
11549;DHT22;61444;59.472;18.306;2023-04-15T19:33:41;3.70;90.00
11549;DHT22;61444;59.472;18.306;2023-04-15T19:35:50;3.70;90.00
11549;DHT22;61444;59.472;18.306;2023-04-15T19:37:58;3.70;89.70
11549;DHT22;61444;59.472;18.306;2023-04-15T19:40:09;3.70;89.50
11549;DHT22;61444;59.472;18.306;2023-04-15T19:42:18;3.70;89.80
11549;DHT22;61444;59.472;18.306;2023-04-15T19:44:27;3.70;90.10
11549;DHT22;61444;59.472;18.306;2023-04-15T19:46:36;3.70;90.00
11549;DHT22;61444;59.472;18.306;2023-04-15T19:48:45;3.70;90.00
11549;DHT22;61444;59.472;18.306;2023-04-15T19:50:54;3.60;90.10
11549;DHT22;61444;59.472;18.306;2023-04-15T19:53:03;3.60;90.00
11549;DHT22;61444;59.472;18.306;2023-04-15T19:55:13;3.60;90.30
11549;DHT22;61444;59.472;18.306;2023-04-15T19:57:22;3.50;90.20
11549;DHT22;61444;59.472;18.306;2023-04-15T19:59:31;3.50;90.10
11549;DHT22;61444;59.472;18.306;2023-04-15T20:01:40;3.50;90.00
11549;DHT22;61444;59.472;18.306;2023-04-15T20:06:00;3.50;90.30
11549;DHT22;61444;59.472;18.306;2023-04-15T20:08:09;3.50;90.00
11549;DHT22;61444;59.472;18.306;2023-04-15T20:10:20;3.50;90.10
11549;DHT22;61444;59.472;18.306;2023-04-15T20:12:29;3.50;90.60
11549;DHT22;61444;59.472;18.306;2023-04-15T20:14:57;3.40;90.30
11549;DHT22;61444;59.472;18.306;2023-04-15T20:17:06;3.40;90.50
11549;DHT22;61444;59.472;18.306;2023-04-15T20:19:14;3.40;90.40
11549;DHT22;61444;59.472;18.306;2023-04-15T20:21:23;3.40;90.30
11549;DHT22;61444;59.472;18.306;2023-04-15T20:23:31;3.40;90.40
11549;DHT22;61444;59.472;18.306;2023-04-15T20:25:43;3.30;90.60
11549;DHT22;61444;59.472;18.306;2023-04-15T20:27:52;3.30;91.00
11549;DHT22;61444;59.472;18.306;2023-04-15T20:30:00;3.30;90.60
11549;DHT22;61444;59.472;18.306;2023-04-15T20:32:11;3.30;90.60
11549;DHT22;61444;59.472;18.306;2023-04-15T20:34:19;3.20;90.80
11549;DHT22;61444;59.472;18.306;2023-04-15T20:36:28;3.20;90.80
11549;DHT22;61444;59.472;18.306;2023-04-15T20:38:38;3.20;91.10
11549;DHT22;61444;59.472;18.306;2023-04-15T20:40:48;3.10;91.10
11549;DHT22;61444;59.472;18.306;2023-04-15T20:42:57;3.10;91.50
11549;DHT22;61444;59.472;18.306;2023-04-15T20:45:06;3.10;91.40
11549;DHT22;61444;59.472;18.306;2023-04-15T20:47:16;3.10;91.40
11549;DHT22;61444;59.472;18.306;2023-04-15T20:49:25;3.10;91.60
11549;DHT22;61444;59.472;18.306;2023-04-15T20:51:34;3.00;91.80
11549;DHT22;61444;59.472;18.306;2023-04-15T20:53:44;3.00;91.80
11549;DHT22;61444;59.472;18.306;2023-04-15T20:55:54;3.00;92.10
11549;DHT22;61444;59.472;18.306;2023-04-15T20:58:03;3.00;92.20
11549;DHT22;61444;59.472;18.306;2023-04-15T21:00:12;3.00;92.40
11549;DHT22;61444;59.472;18.306;2023-04-15T21:02:21;2.90;92.60
11549;DHT22;61444;59.472;18.306;2023-04-15T21:04:31;2.90;92.80
11549;DHT22;61444;59.472;18.306;2023-04-15T21:06:39;2.80;92.80
11549;DHT22;61444;59.472;18.306;2023-04-15T21:08:48;2.80;93.00
11549;DHT22;61444;59.472;18.306;2023-04-15T21:10:59;2.70;93.00
11549;DHT22;61444;59.472;18.306;2023-04-15T21:13:08;2.80;93.20
11549;DHT22;61444;59.472;18.306;2023-04-15T21:15:19;2.70;93.40
11549;DHT22;61444;59.472;18.306;2023-04-15T21:17:27;2.70;93.50
11549;DHT22;61444;59.472;18.306;2023-04-15T21:19:36;2.70;93.70
11549;DHT22;61444;59.472;18.306;2023-04-15T21:21:45;2.60;94.20
11549;DHT22;61444;59.472;18.306;2023-04-15T21:23:53;2.60;94.00
11549;DHT22;61444;59.472;18.306;2023-04-15T21:26:04;2.60;94.10
11549;DHT22;61444;59.472;18.306;2023-04-15T21:28:12;2.50;94.20
11549;DHT22;61444;59.472;18.306;2023-04-15T21:30:21;2.50;94.20
11549;DHT22;61444;59.472;18.306;2023-04-15T21:32:31;2.60;94.10
11549;DHT22;61444;59.472;18.306;2023-04-15T21:34:40;2.50;94.30
11549;DHT22;61444;59.472;18.306;2023-04-15T21:36:49;2.50;94.30
11549;DHT22;61444;59.472;18.306;2023-04-15T21:38:57;2.50;94.60
11549;DHT22;61444;59.472;18.306;2023-04-15T21:41:08;2.50;94.50
11549;DHT22;61444;59.472;18.306;2023-04-15T21:43:17;2.40;94.80
11549;DHT22;61444;59.472;18.306;2023-04-15T21:45:27;2.40;94.90
11549;DHT22;61444;59.472;18.306;2023-04-15T21:47:36;2.30;95.10
11549;DHT22;61444;59.472;18.306;2023-04-15T21:50:06;2.30;95.40
11549;DHT22;61444;59.472;18.306;2023-04-15T21:52:14;2.30;96.00
11549;DHT22;61444;59.472;18.306;2023-04-15T21:54:23;2.20;96.30
11549;DHT22;61444;59.472;18.306;2023-04-15T21:56:34;2.20;96.30
11549;DHT22;61444;59.472;18.306;2023-04-15T21:58:43;2.20;97.00
11549;DHT22;61444;59.472;18.306;2023-04-15T22:00:52;2.20;96.80
11549;DHT22;61444;59.472;18.306;2023-04-15T22:03:06;2.10;97.00
11549;DHT22;61444;59.472;18.306;2023-04-15T22:05:16;2.20;97.30
11549;DHT22;61444;59.472;18.306;2023-04-15T22:07:24;2.10;97.80
11549;DHT22;61444;59.472;18.306;2023-04-15T22:09:33;2.00;97.90
11549;DHT22;61444;59.472;18.306;2023-04-15T22:11:43;2.00;98.50
11549;DHT22;61444;59.472;18.306;2023-04-15T22:13:53;2.00;98.60
11549;DHT22;61444;59.472;18.306;2023-04-15T22:16:03;2.00;99.10
11549;DHT22;61444;59.472;18.306;2023-04-15T22:18:12;1.90;99.40
11549;DHT22;61444;59.472;18.306;2023-04-15T22:20:21;1.80;99.90
11549;DHT22;61444;59.472;18.306;2023-04-15T22:22:30;1.90;99.90
11549;DHT22;61444;59.472;18.306;2023-04-15T22:24:50;1.90;99.90
11549;DHT22;61444;59.472;18.306;2023-04-15T22:27:00;1.80;99.90
11549;DHT22;61444;59.472;18.306;2023-04-15T22:29:09;1.80;99.90
11549;DHT22;61444;59.472;18.306;2023-04-15T22:31:17;1.80;99.90
11549;DHT22;61444;59.472;18.306;2023-04-15T22:33:27;1.80;99.90
11549;DHT22;61444;59.472;18.306;2023-04-15T22:35:36;1.70;99.90
11549;DHT22;61444;59.472;18.306;2023-04-15T22:37:45;1.70;99.90
11549;DHT22;61444;59.472;18.306;2023-04-15T22:39:54;1.70;99.90
11549;DHT22;61444;59.472;18.306;2023-04-15T22:42:04;1.70;99.90
11549;DHT22;61444;59.472;18.306;2023-04-15T22:44:12;1.60;99.90
11549;DHT22;61444;59.472;18.306;2023-04-15T22:46:21;1.60;99.90
11549;DHT22;61444;59.472;18.306;2023-04-15T22:48:29;1.50;99.90
11549;DHT22;61444;59.472;18.306;2023-04-15T22:50:38;1.40;99.90
11549;DHT22;61444;59.472;18.306;2023-04-15T22:52:47;1.40;99.90
11549;DHT22;61444;59.472;18.306;2023-04-15T22:54:56;1.40;99.90
11549;DHT22;61444;59.472;18.306;2023-04-15T22:57:06;1.40;99.90
11549;DHT22;61444;59.472;18.306;2023-04-15T22:59:14;1.40;99.90
11549;DHT22;61444;59.472;18.306;2023-04-15T23:01:23;1.20;99.90
11549;DHT22;61444;59.472;18.306;2023-04-15T23:03:32;1.20;99.90
11549;DHT22;61444;59.472;18.306;2023-04-15T23:06:00;1.20;99.90
11549;DHT22;61444;59.472;18.306;2023-04-15T23:08:09;1.10;99.90
11549;DHT22;61444;59.472;18.306;2023-04-15T23:10:18;1.10;99.90
11549;DHT22;61444;59.472;18.306;2023-04-15T23:12:28;1.00;99.90
11549;DHT22;61444;59.472;18.306;2023-04-15T23:14:37;0.80;99.90
11549;DHT22;61444;59.472;18.306;2023-04-15T23:16:45;0.80;99.90
11549;DHT22;61444;59.472;18.306;2023-04-15T23:18:54;0.70;99.90
11549;DHT22;61444;59.472;18.306;2023-04-15T23:21:04;0.70;99.90
11549;DHT22;61444;59.472;18.306;2023-04-15T23:23:12;0.60;99.90
11549;DHT22;61444;59.472;18.306;2023-04-15T23:25:21;0.60;99.90
11549;DHT22;61444;59.472;18.306;2023-04-15T23:27:31;0.50;99.90
11549;DHT22;61444;59.472;18.306;2023-04-15T23:29:40;0.50;99.90
11549;DHT22;61444;59.472;18.306;2023-04-15T23:31:48;0.50;99.90
11549;DHT22;61444;59.472;18.306;2023-04-15T23:33:57;0.50;99.90
11549;DHT22;61444;59.472;18.306;2023-04-15T23:36:05;0.50;99.90
11549;DHT22;61444;59.472;18.306;2023-04-15T23:38:14;0.60;99.90
11549;DHT22;61444;59.472;18.306;2023-04-15T23:40:23;0.60;99.90
11549;DHT22;61444;59.472;18.306;2023-04-15T23:42:33;0.40;99.90
11549;DHT22;61444;59.472;18.306;2023-04-15T23:44:42;0.40;99.90
11549;DHT22;61444;59.472;18.306;2023-04-15T23:46:51;0.40;99.90
11549;DHT22;61444;59.472;18.306;2023-04-15T23:48:59;0.20;99.90
11549;DHT22;61444;59.472;18.306;2023-04-15T23:51:09;0.20;99.90
11549;DHT22;61444;59.472;18.306;2023-04-15T23:53:17;0.20;99.90
11549;DHT22;61444;59.472;18.306;2023-04-15T23:55:26;0.20;99.90
11549;DHT22;61444;59.472;18.306;2023-04-15T23:57:36;0.20;99.90
11549;DHT22;61444;59.472;18.306;2023-04-15T23:59:46;0.20;99.90
